createdAt,value
2022-09-18T00:01:29.226Z,9.15
2022-09-18T00:03:57.947Z,9.17
2022-09-18T00:06:27.780Z,9.19
2022-09-18T00:08:57.076Z,9.19
2022-09-18T00:11:25.295Z,9.19
2022-09-18T00:13:52.641Z,9.21
2022-09-18T00:16:21.180Z,9.22
2022-09-18T00:18:48.326Z,9.23
2022-09-18T00:21:21.217Z,9.25
2022-09-18T00:23:47.685Z,9.27
2022-09-18T00:26:18.353Z,9.30
2022-09-18T00:28:45.390Z,9.30
2022-09-18T00:31:14.909Z,9.30
2022-09-18T00:33:42.145Z,9.33
2022-09-18T00:36:14.799Z,9.32
2022-09-18T00:38:42.305Z,9.33
2022-09-18T00:41:14.014Z,9.34
2022-09-18T00:43:41.226Z,9.34
2022-09-18T00:46:09.534Z,9.30
2022-09-18T00:48:59.856Z,9.31
2022-09-18T00:51:26.773Z,9.30
2022-09-18T00:54:03.573Z,9.31
2022-09-18T00:56:30.064Z,9.31
2022-09-18T00:58:56.743Z,9.27
2022-09-18T01:01:23.343Z,9.27
2022-09-18T01:03:49.837Z,9.27
2022-09-18T01:06:25.369Z,9.27
2022-09-18T01:09:27.996Z,9.29
2022-09-18T01:12:21.810Z,9.28
2022-09-18T01:15:22.425Z,9.32
2022-09-18T01:17:59.427Z,9.34
2022-09-18T01:20:39.171Z,9.39
2022-09-18T01:23:24.633Z,9.42
2022-09-18T01:25:51.230Z,9.48
2022-09-18T01:28:26.692Z,9.49
2022-09-18T01:30:57.955Z,9.51
2022-09-18T01:33:33.786Z,9.56
2022-09-18T01:36:04.769Z,9.61
2022-09-18T01:38:57.144Z,9.66
2022-09-18T01:41:27.066Z,9.70
2022-09-18T01:44:09.338Z,9.72
2022-09-18T01:46:40.184Z,9.77
2022-09-18T01:49:12.003Z,9.82
2022-09-18T01:52:05.007Z,9.82
2022-09-18T01:54:38.277Z,9.84
2022-09-18T01:57:15.076Z,9.86
2022-09-18T01:59:48.307Z,9.89
2022-09-18T02:02:24.535Z,9.87
2022-09-18T02:04:57.499Z,9.89
2022-09-18T02:07:34.865Z,9.90
2022-09-18T02:10:01.789Z,9.89
2022-09-18T02:12:32.963Z,9.91
2022-09-18T02:15:05.340Z,9.93
2022-09-18T02:17:53.531Z,9.93
2022-09-18T02:20:29.278Z,9.92
2022-09-18T02:23:02.835Z,9.97
2022-09-18T02:25:35.155Z,9.99
2022-09-18T02:28:03.635Z,10.00
2022-09-18T02:30:30.681Z,10.01
2022-09-18T02:32:58.989Z,10.04
2022-09-18T02:35:30.851Z,9.97
2022-09-18T02:38:06.840Z,10.06
2022-09-18T02:40:50.042Z,10.07
2022-09-18T02:43:42.795Z,10.09
2022-09-18T02:46:30.789Z,10.11
2022-09-18T02:49:18.871Z,10.14
2022-09-18T02:51:58.026Z,10.12
2022-09-18T02:54:33.150Z,10.16
2022-09-18T02:57:13.710Z,10.17
2022-09-18T02:59:46.691Z,10.20
2022-09-18T03:02:15.643Z,10.22
2022-09-18T03:04:42.471Z,10.22
2022-09-18T03:07:18.154Z,10.23
2022-09-18T03:09:47.317Z,10.24
2022-09-18T03:12:15.645Z,10.22
2022-09-18T03:14:47.449Z,10.25
2022-09-18T03:17:13.998Z,10.23
2022-09-18T03:19:43.283Z,10.25
2022-09-18T03:22:10.400Z,10.25
2022-09-18T03:24:37.828Z,10.27
2022-09-18T03:27:05.522Z,10.27
2022-09-18T03:29:32.626Z,10.27
2022-09-18T03:32:00.522Z,10.30
2022-09-18T03:34:27.459Z,10.32
2022-09-18T03:36:54.710Z,10.33
2022-09-18T03:39:21.341Z,10.34
2022-09-18T03:41:50.427Z,10.33
2022-09-18T03:44:17.342Z,10.37
2022-09-18T03:46:45.103Z,10.38
2022-09-18T03:49:11.704Z,10.38
2022-09-18T03:51:40.103Z,10.40
2022-09-18T03:54:08.632Z,10.43
2022-09-18T03:56:55.469Z,10.44
2022-09-18T03:59:24.637Z,10.46
2022-09-18T04:02:02.408Z,10.46
2022-09-18T04:04:49.052Z,10.49
2022-09-18T04:07:34.247Z,10.47
2022-09-18T04:10:26.448Z,10.49
2022-09-18T04:12:54.000Z,10.47
2022-09-18T04:15:29.864Z,10.49
2022-09-18T04:17:56.420Z,10.47
2022-09-18T04:20:23.035Z,10.47
2022-09-18T04:22:49.565Z,10.46
2022-09-18T04:25:19.759Z,10.46
2022-09-18T04:27:46.903Z,10.47
2022-09-18T04:30:14.352Z,10.47
2022-09-18T04:32:43.295Z,10.47
2022-09-18T04:35:10.381Z,10.47
2022-09-18T04:37:37.700Z,10.46
2022-09-18T04:40:05.648Z,10.48
2022-09-18T04:42:32.319Z,10.49
2022-09-18T04:45:00.545Z,10.51
2022-09-18T04:47:27.145Z,10.53
2022-09-18T04:49:53.678Z,10.53
2022-09-18T04:52:20.294Z,10.53
2022-09-18T04:54:46.966Z,10.55
2022-09-18T04:57:13.495Z,10.58
2022-09-18T04:59:45.529Z,10.57
2022-09-18T05:02:12.521Z,10.57
2022-09-18T05:04:39.077Z,10.58
2022-09-18T05:07:13.743Z,10.59
2022-09-18T05:09:40.679Z,10.62
2022-09-18T05:12:08.822Z,10.63
2022-09-18T05:14:36.626Z,10.66
2022-09-18T05:17:05.888Z,10.67
2022-09-18T05:19:41.196Z,10.70
2022-09-18T05:22:13.665Z,10.67
2022-09-18T05:24:45.081Z,10.68
2022-09-18T05:27:13.337Z,10.70
2022-09-18T05:29:40.280Z,10.71
2022-09-18T05:32:12.017Z,10.72
2022-09-18T05:34:39.189Z,10.73
2022-09-18T05:37:06.960Z,10.72
2022-09-18T05:39:33.780Z,10.73
2022-09-18T05:42:02.084Z,10.72
2022-09-18T05:44:28.893Z,10.70
2022-09-18T05:46:58.423Z,10.71
2022-09-18T05:49:26.748Z,10.69
2022-09-18T05:51:55.806Z,10.71
2022-09-18T05:54:22.422Z,10.71
2022-09-18T05:56:50.575Z,10.72
2022-09-18T05:59:17.221Z,10.73
2022-09-18T06:01:47.408Z,10.74
2022-09-18T06:04:20.231Z,10.71
2022-09-18T06:07:02.469Z,10.70
2022-09-18T06:09:29.533Z,10.72
2022-09-18T06:11:56.028Z,10.68
2022-09-18T06:14:22.907Z,10.69
2022-09-18T06:16:50.019Z,10.70
2022-09-18T06:19:17.025Z,10.70
2022-09-18T06:21:46.956Z,10.72
2022-09-18T06:24:16.799Z,10.72
2022-09-18T06:27:06.996Z,10.74
2022-09-18T06:29:33.699Z,10.76
2022-09-18T06:32:07.839Z,10.77
2022-09-18T06:34:38.606Z,10.81
2022-09-18T06:37:09.896Z,10.82
2022-09-18T06:39:42.708Z,10.84
2022-09-18T06:42:16.584Z,10.84
2022-09-18T06:45:02.070Z,10.86
2022-09-18T06:47:29.886Z,10.88
2022-09-18T06:49:56.480Z,10.90
2022-09-18T06:52:23.092Z,10.92
2022-09-18T06:54:54.012Z,10.94
2022-09-18T06:57:33.220Z,10.98
2022-09-18T06:59:59.723Z,11.00
2022-09-18T07:02:28.293Z,10.98
2022-09-18T07:05:02.869Z,10.94
2022-09-18T07:07:30.248Z,10.93
2022-09-18T07:09:56.844Z,10.94
2022-09-18T07:12:28.018Z,10.95
2022-09-18T07:14:55.001Z,10.96
2022-09-18T07:17:26.239Z,10.88
2022-09-18T07:19:55.361Z,10.97
2022-09-18T07:22:27.165Z,10.98
2022-09-18T07:24:54.217Z,11.04
2022-09-18T07:27:21.968Z,11.03
2022-09-18T07:29:49.690Z,11.04
2022-09-18T07:32:18.147Z,11.05
2022-09-18T07:34:45.290Z,11.08
2022-09-18T07:37:16.506Z,11.10
2022-09-18T07:39:49.290Z,11.10
2022-09-18T07:43:07.846Z,11.10
2022-09-18T07:45:37.471Z,11.09
2022-09-18T07:48:06.705Z,11.10
2022-09-18T07:50:38.606Z,11.10
2022-09-18T07:53:07.196Z,11.13
2022-09-18T07:55:37.412Z,11.12
2022-09-18T07:58:07.080Z,11.14
2022-09-18T08:01:00.625Z,11.16
2022-09-18T08:03:27.959Z,11.18
2022-09-18T08:06:14.760Z,11.21
2022-09-18T08:08:55.059Z,11.23
2022-09-18T08:11:54.249Z,11.29
2022-09-18T08:14:52.889Z,11.34
2022-09-18T08:17:34.622Z,11.39
2022-09-18T08:20:27.448Z,11.41
2022-09-18T08:23:04.116Z,11.41
2022-09-18T08:25:31.326Z,11.45
2022-09-18T08:28:01.995Z,11.45
2022-09-18T08:30:41.735Z,11.47
2022-09-18T08:33:11.312Z,11.51
2022-09-18T08:35:38.290Z,11.53
2022-09-18T08:38:24.184Z,11.54
2022-09-18T08:41:24.555Z,11.54
2022-09-18T08:44:13.775Z,11.55
2022-09-18T08:46:56.652Z,11.56
2022-09-18T08:49:47.272Z,11.59
2022-09-18T08:52:21.287Z,11.65
2022-09-18T08:55:14.242Z,11.68
2022-09-18T08:58:22.642Z,11.73
2022-09-18T09:00:59.066Z,11.78
2022-09-18T09:03:51.570Z,11.80
2022-09-18T09:06:32.966Z,11.87
2022-09-18T09:09:15.890Z,11.89
2022-09-18T09:12:18.895Z,11.90
2022-09-18T09:15:05.170Z,11.84
2022-09-18T09:17:53.336Z,11.87
2022-09-18T09:20:40.800Z,11.86
2022-09-18T09:23:23.469Z,11.86
2022-09-18T09:26:14.920Z,11.85
2022-09-18T09:29:30.558Z,11.84
2022-09-18T09:32:24.803Z,11.91
2022-09-18T09:35:31.612Z,11.93
2022-09-18T09:38:11.313Z,11.96
2022-09-18T09:40:46.288Z,12.02
2022-09-18T09:43:42.507Z,12.09
2022-09-18T09:46:27.278Z,12.19
2022-09-18T09:49:06.145Z,12.24
2022-09-18T09:52:25.432Z,12.30
2022-09-18T09:55:01.671Z,12.38
2022-09-18T09:57:34.428Z,12.36
2022-09-18T10:00:16.781Z,12.36
2022-09-18T10:03:22.599Z,12.37
2022-09-18T10:06:11.292Z,12.37
2022-09-18T10:08:57.676Z,12.39
2022-09-18T10:11:26.111Z,12.42
2022-09-18T10:14:17.304Z,12.48
2022-09-18T10:16:51.626Z,12.52
2022-09-18T10:19:21.045Z,12.60
2022-09-18T10:21:50.501Z,12.66
2022-09-18T10:24:38.260Z,12.72
2022-09-18T10:27:14.048Z,12.81
2022-09-18T10:29:43.352Z,12.91
2022-09-18T10:32:38.255Z,12.98
2022-09-18T10:35:26.114Z,13.03
2022-09-18T10:37:52.802Z,13.06
2022-09-18T10:40:33.783Z,13.08
2022-09-18T10:43:02.850Z,13.11
2022-09-18T10:45:32.045Z,13.09
2022-09-18T10:48:19.861Z,13.06
2022-09-18T10:50:54.973Z,13.02
2022-09-18T10:53:34.375Z,12.99
2022-09-18T10:56:19.398Z,12.95
2022-09-18T10:58:47.452Z,12.92
2022-09-18T11:01:14.607Z,12.90
2022-09-18T11:04:02.316Z,12.91
2022-09-18T11:06:35.741Z,12.89
2022-09-18T11:09:34.165Z,12.92
2022-09-18T11:12:01.851Z,12.96
2022-09-18T11:14:40.968Z,12.97
2022-09-18T11:17:34.677Z,12.97
2022-09-18T11:20:06.232Z,13.00
2022-09-18T11:22:44.913Z,13.01
2022-09-18T11:25:23.513Z,13.02
2022-09-18T11:27:58.256Z,13.01
2022-09-18T11:30:34.568Z,12.97
2022-09-18T11:33:29.221Z,12.92
2022-09-18T11:36:26.137Z,12.88
2022-09-18T11:39:24.563Z,12.89
2022-09-18T11:42:16.956Z,12.83
2022-09-18T11:45:31.303Z,12.85
2022-09-18T11:48:25.659Z,12.85
2022-09-18T11:51:18.052Z,12.91
2022-09-18T11:54:17.784Z,12.97
2022-09-18T11:57:10.352Z,13.06
2022-09-18T12:00:02.080Z,13.13
2022-09-18T12:03:11.274Z,13.18
2022-09-18T12:06:03.859Z,13.25
2022-09-18T12:08:59.496Z,13.27
2022-09-18T12:12:10.459Z,13.30
2022-09-18T12:15:04.987Z,13.35
2022-09-18T12:18:08.996Z,13.36
2022-09-18T12:21:04.792Z,13.45
2022-09-18T12:23:50.690Z,13.48
2022-09-18T12:26:51.874Z,13.51
2022-09-18T12:29:46.699Z,13.51
2022-09-18T12:32:55.974Z,13.44
2022-09-18T12:35:59.955Z,13.40
2022-09-18T12:38:54.715Z,13.36
2022-09-18T12:42:00.372Z,13.31
2022-09-18T12:45:28.649Z,13.35
2022-09-18T12:48:35.432Z,13.34
2022-09-18T12:51:44.776Z,13.37
2022-09-18T12:55:05.344Z,13.38
2022-09-18T12:58:21.199Z,13.39
2022-09-18T13:01:46.384Z,13.42
2022-09-18T13:04:38.278Z,13.53
2022-09-18T13:07:31.573Z,13.60
2022-09-18T13:10:24.338Z,13.69
2022-09-18T13:13:27.849Z,13.77
2022-09-18T13:16:33.018Z,13.85
2022-09-18T13:19:35.544Z,13.91
2022-09-18T13:22:22.703Z,13.91
2022-09-18T13:25:21.470Z,13.85
2022-09-18T13:28:14.929Z,13.79
2022-09-18T13:31:15.110Z,13.65
2022-09-18T13:34:16.151Z,13.48
2022-09-18T13:37:14.538Z,13.35
2022-09-18T13:40:11.145Z,13.28
2022-09-18T13:42:56.671Z,13.18
2022-09-18T13:45:41.538Z,13.14
2022-09-18T13:48:28.538Z,13.14
2022-09-18T13:51:28.524Z,13.19
2022-09-18T13:54:24.823Z,13.25
2022-09-18T13:57:19.812Z,13.31
2022-09-18T14:00:20.445Z,13.41
2022-09-18T14:03:08.372Z,13.46
2022-09-18T14:05:53.770Z,13.58
2022-09-18T14:08:38.841Z,13.70
2022-09-18T14:11:24.292Z,13.78
2022-09-18T14:14:11.962Z,13.90
2022-09-18T14:17:11.763Z,14.03
2022-09-18T14:20:00.452Z,14.17
2022-09-18T14:22:45.268Z,14.24
2022-09-18T14:25:45.734Z,14.33
2022-09-18T14:28:31.807Z,14.39
2022-09-18T14:31:37.514Z,14.44
2022-09-18T14:34:39.277Z,14.51
2022-09-18T14:37:31.262Z,14.55
2022-09-18T14:40:22.096Z,14.57
2022-09-18T14:43:25.815Z,14.54
2022-09-18T14:46:18.192Z,14.54
2022-09-18T14:49:03.311Z,14.49
2022-09-18T14:52:03.259Z,14.47
2022-09-18T14:54:52.443Z,14.44
2022-09-18T14:57:53.094Z,14.40
2022-09-18T15:00:38.658Z,14.40
2022-09-18T15:03:26.003Z,14.34
2022-09-18T15:06:34.769Z,14.33
2022-09-18T15:09:30.542Z,14.29
2022-09-18T15:12:20.225Z,14.26
2022-09-18T15:15:46.927Z,14.18
2022-09-18T15:18:42.354Z,14.12
2022-09-18T15:21:33.208Z,14.12
2022-09-18T15:24:18.886Z,14.05
2022-09-18T15:27:05.008Z,14.02
2022-09-18T15:30:02.117Z,13.96
2022-09-18T15:32:55.593Z,13.94
2022-09-18T15:35:40.916Z,13.93
2022-09-18T15:38:38.692Z,13.92
2022-09-18T15:41:32.765Z,13.89
2022-09-18T15:44:38.439Z,13.86
2022-09-18T15:47:26.222Z,13.84
2022-09-18T15:50:13.674Z,13.86
2022-09-18T15:52:59.064Z,13.84
2022-09-18T15:55:54.174Z,13.83
2022-09-18T15:58:53.877Z,13.71
2022-09-18T16:01:46.495Z,13.74
2022-09-18T16:04:33.547Z,13.76
2022-09-18T16:07:25.020Z,13.72
2022-09-18T16:10:35.322Z,13.68
2022-09-18T16:13:20.181Z,13.67
2022-09-18T16:16:07.791Z,13.66
2022-09-18T16:18:55.623Z,13.57
2022-09-18T16:21:42.731Z,13.64
2022-09-18T16:24:28.549Z,13.64
2022-09-18T16:27:15.310Z,13.63
2022-09-18T16:30:00.382Z,13.60
2022-09-18T16:32:45.345Z,13.56
2022-09-18T16:35:30.212Z,13.56
2022-09-18T16:38:15.571Z,13.54
2022-09-18T16:41:01.658Z,13.53
2022-09-18T16:43:47.343Z,13.53
2022-09-18T16:46:53.659Z,13.50
2022-09-18T16:49:42.946Z,13.50
2022-09-18T16:52:28.439Z,13.50
2022-09-18T16:55:14.289Z,13.49
2022-09-18T16:57:59.603Z,13.48
2022-09-18T17:00:44.575Z,13.47
2022-09-18T17:03:29.828Z,13.46
2022-09-18T17:06:18.670Z,13.44
2022-09-18T17:09:04.043Z,13.43
2022-09-18T17:11:48.967Z,13.41
2022-09-18T17:14:34.514Z,13.40
2022-09-18T17:17:19.676Z,13.39
2022-09-18T17:20:05.506Z,13.38
2022-09-18T17:22:50.576Z,13.37
2022-09-18T17:25:36.073Z,13.37
2022-09-18T17:28:21.525Z,13.37
2022-09-18T17:31:09.006Z,13.37
2022-09-18T17:33:55.174Z,13.37
2022-09-18T17:36:40.614Z,13.37
2022-09-18T17:39:26.015Z,13.38
2022-09-18T17:42:11.497Z,13.38
2022-09-18T17:44:56.824Z,13.38
2022-09-18T17:47:42.293Z,13.37
2022-09-18T17:50:27.681Z,13.37
2022-09-18T17:53:12.691Z,13.37
2022-09-18T17:55:58.697Z,13.37
2022-09-18T17:58:44.342Z,13.37
2022-09-18T18:01:30.371Z,13.38
2022-09-18T18:04:15.671Z,13.37
2022-09-18T18:07:00.910Z,13.35
2022-09-18T18:09:46.096Z,13.34
2022-09-18T18:12:31.511Z,13.34
2022-09-18T18:15:17.092Z,13.35
2022-09-18T18:18:02.178Z,13.35
2022-09-18T18:20:51.263Z,13.34
2022-09-18T18:23:36.536Z,13.36
2022-09-18T18:26:21.769Z,13.34
2022-09-18T18:29:12.019Z,13.33
2022-09-18T18:31:57.266Z,13.34
2022-09-18T18:34:42.466Z,13.35
2022-09-18T18:37:27.459Z,13.35
2022-09-18T18:40:12.389Z,13.33
2022-09-18T18:42:57.746Z,13.33
2022-09-18T18:45:51.840Z,13.32
2022-09-18T18:48:37.227Z,13.32
2022-09-18T18:51:22.074Z,13.32
2022-09-18T18:54:06.983Z,13.30
2022-09-18T18:56:52.362Z,13.30
2022-09-18T18:59:37.798Z,13.30
2022-09-18T19:02:23.664Z,13.28
2022-09-18T19:05:09.052Z,13.25
2022-09-18T19:07:54.486Z,13.23
2022-09-18T19:10:39.391Z,13.20
2022-09-18T19:13:25.128Z,13.19
2022-09-18T19:16:12.109Z,13.16
2022-09-18T19:18:59.201Z,13.12
2022-09-18T19:21:44.782Z,13.13
2022-09-18T19:24:30.184Z,13.09
2022-09-18T19:27:15.541Z,13.07
2022-09-18T19:30:01.286Z,13.05
2022-09-18T19:32:46.137Z,13.04
2022-09-18T19:35:35.457Z,13.02
2022-09-18T19:38:20.574Z,12.99
2022-09-18T19:41:20.953Z,12.97
2022-09-18T19:44:14.363Z,12.95
2022-09-18T19:47:03.275Z,12.95
2022-09-18T19:49:49.335Z,12.92
2022-09-18T19:52:34.553Z,12.90
2022-09-18T19:55:20.204Z,12.87
2022-09-18T19:58:05.427Z,12.86
2022-09-18T20:00:50.315Z,12.83
2022-09-18T20:03:37.158Z,12.83
2022-09-18T20:06:22.638Z,12.80
2022-09-18T20:09:08.421Z,12.77
2022-09-18T20:11:53.485Z,12.77
2022-09-18T20:14:38.395Z,12.76
2022-09-18T20:17:23.708Z,12.74
2022-09-18T20:20:10.178Z,12.73
2022-09-18T20:22:56.596Z,12.71
2022-09-18T20:25:41.641Z,12.70
2022-09-18T20:28:27.849Z,12.70
2022-09-18T20:31:14.878Z,12.70
2022-09-18T20:34:00.516Z,12.72
2022-09-18T20:36:45.649Z,12.74
2022-09-18T20:39:30.554Z,12.72
2022-09-18T20:42:15.211Z,12.72
2022-09-18T20:45:01.303Z,12.71
2022-09-18T20:47:46.468Z,12.72
2022-09-18T20:50:31.739Z,12.70
2022-09-18T20:53:17.000Z,12.70
2022-09-18T20:56:02.333Z,12.69
2022-09-18T20:58:50.904Z,12.69
2022-09-18T21:01:36.468Z,12.70
2022-09-18T21:04:21.549Z,12.69
2022-09-18T21:07:06.399Z,12.69
2022-09-18T21:09:52.366Z,12.70
2022-09-18T21:12:39.338Z,12.68
2022-09-18T21:15:24.567Z,12.66
2022-09-18T21:18:09.453Z,12.69
2022-09-18T21:21:02.227Z,12.68
2022-09-18T21:23:47.646Z,12.68
2022-09-18T21:26:38.950Z,12.69
2022-09-18T21:29:26.564Z,12.71
2022-09-18T21:32:11.735Z,12.70
2022-09-18T21:34:56.459Z,12.72
2022-09-18T21:37:41.656Z,12.72
2022-09-18T21:40:26.802Z,12.74
2022-09-18T21:43:12.268Z,12.76
2022-09-18T21:46:06.299Z,12.74
2022-09-18T21:48:51.393Z,12.76
2022-09-18T21:51:38.584Z,12.76
2022-09-18T21:54:24.735Z,12.74
2022-09-18T21:57:09.940Z,12.70
2022-09-18T21:59:54.699Z,12.69
2022-09-18T22:02:39.679Z,12.68
2022-09-18T22:05:25.624Z,12.65
2022-09-18T22:08:10.730Z,12.62
2022-09-18T22:11:01.820Z,12.59
2022-09-18T22:13:47.580Z,12.60
2022-09-18T22:16:33.273Z,12.60
2022-09-18T22:19:18.596Z,12.55
2022-09-18T22:22:03.463Z,12.57
2022-09-18T22:24:48.726Z,12.48
2022-09-18T22:27:33.857Z,12.32
2022-09-18T22:30:19.206Z,12.16
2022-09-18T22:33:05.154Z,11.98
2022-09-18T22:35:50.053Z,11.82
2022-09-18T22:38:35.228Z,11.68
2022-09-18T22:41:21.144Z,11.54
2022-09-18T22:44:07.171Z,11.40
2022-09-18T22:46:53.260Z,11.30
2022-09-18T22:49:38.434Z,11.20
2022-09-18T22:52:23.928Z,11.14
2022-09-18T22:55:09.042Z,11.10
2022-09-18T22:57:54.424Z,11.06
2022-09-18T23:00:39.938Z,11.04
2022-09-18T23:03:25.240Z,10.99
2022-09-18T23:06:10.035Z,10.92
2022-09-18T23:08:56.687Z,10.90
2022-09-18T23:11:43.537Z,10.86
2022-09-18T23:14:30.307Z,10.85
2022-09-18T23:17:15.533Z,10.85
2022-09-18T23:20:01.019Z,10.83
2022-09-18T23:22:46.493Z,10.82
2022-09-18T23:25:35.959Z,10.82
2022-09-18T23:28:20.762Z,10.85
2022-09-18T23:31:11.098Z,10.84
2022-09-18T23:33:59.128Z,10.84
2022-09-18T23:36:46.341Z,10.82
2022-09-18T23:39:33.986Z,10.83
2022-09-18T23:42:19.191Z,10.82
2022-09-18T23:45:04.567Z,10.82
2022-09-18T23:47:50.139Z,10.84
2022-09-18T23:50:35.208Z,10.82
2022-09-18T23:53:22.767Z,10.83
2022-09-18T23:56:10.850Z,10.83
2022-09-18T23:58:57.853Z,10.82
